sensor_id;sensor_type;location;lat;lon;timestamp;temperature;humidity
22781;DHT22;11557;50.884;4.322;2023-02-18T00:01:00;12.00;99.90
22781;DHT22;11557;50.884;4.322;2023-02-18T00:03:27;12.00;99.90
22781;DHT22;11557;50.884;4.322;2023-02-18T00:05:54;11.90;99.90
22781;DHT22;11557;50.884;4.322;2023-02-18T00:08:20;12.00;99.90
22781;DHT22;11557;50.884;4.322;2023-02-18T00:10:46;12.00;99.90
22781;DHT22;11557;50.884;4.322;2023-02-18T00:13:12;11.90;99.90
22781;DHT22;11557;50.884;4.322;2023-02-18T00:15:38;12.00;99.90
22781;DHT22;11557;50.884;4.322;2023-02-18T00:18:06;11.90;99.90
22781;DHT22;11557;50.884;4.322;2023-02-18T00:20:32;11.90;99.90
22781;DHT22;11557;50.884;4.322;2023-02-18T00:23:01;11.90;99.90
22781;DHT22;11557;50.884;4.322;2023-02-18T00:25:27;12.00;99.90
22781;DHT22;11557;50.884;4.322;2023-02-18T00:27:53;12.00;99.90
22781;DHT22;11557;50.884;4.322;2023-02-18T00:30:19;12.00;99.90
22781;DHT22;11557;50.884;4.322;2023-02-18T00:32:44;11.80;99.90
22781;DHT22;11557;50.884;4.322;2023-02-18T00:35:10;11.70;99.90
22781;DHT22;11557;50.884;4.322;2023-02-18T00:37:36;11.70;99.90
22781;DHT22;11557;50.884;4.322;2023-02-18T00:40:02;11.80;99.90
22781;DHT22;11557;50.884;4.322;2023-02-18T00:42:28;11.80;99.90
22781;DHT22;11557;50.884;4.322;2023-02-18T00:44:53;11.80;99.90
22781;DHT22;11557;50.884;4.322;2023-02-18T00:47:19;11.90;99.90
22781;DHT22;11557;50.884;4.322;2023-02-18T00:49:45;11.90;99.90
22781;DHT22;11557;50.884;4.322;2023-02-18T00:52:11;11.80;99.90
22781;DHT22;11557;50.884;4.322;2023-02-18T00:54:36;11.90;99.90
22781;DHT22;11557;50.884;4.322;2023-02-18T00:57:02;11.90;99.90
22781;DHT22;11557;50.884;4.322;2023-02-18T00:59:27;11.90;99.90
22781;DHT22;11557;50.884;4.322;2023-02-18T01:01:53;12.00;99.90
22781;DHT22;11557;50.884;4.322;2023-02-18T01:04:19;11.80;99.90
22781;DHT22;11557;50.884;4.322;2023-02-18T01:06:45;11.80;99.90
22781;DHT22;11557;50.884;4.322;2023-02-18T01:09:10;11.90;99.90
22781;DHT22;11557;50.884;4.322;2023-02-18T01:11:36;11.70;99.90
22781;DHT22;11557;50.884;4.322;2023-02-18T01:14:02;11.70;99.90
22781;DHT22;11557;50.884;4.322;2023-02-18T01:16:28;11.70;99.90
22781;DHT22;11557;50.884;4.322;2023-02-18T01:18:54;11.70;99.90
22781;DHT22;11557;50.884;4.322;2023-02-18T01:21:20;11.70;99.90
22781;DHT22;11557;50.884;4.322;2023-02-18T01:23:46;11.60;99.90
22781;DHT22;11557;50.884;4.322;2023-02-18T01:26:12;11.60;99.90
22781;DHT22;11557;50.884;4.322;2023-02-18T01:28:38;11.70;99.90
22781;DHT22;11557;50.884;4.322;2023-02-18T01:31:10;11.60;99.90
22781;DHT22;11557;50.884;4.322;2023-02-18T01:33:37;11.60;99.90
22781;DHT22;11557;50.884;4.322;2023-02-18T01:36:04;11.70;99.90
22781;DHT22;11557;50.884;4.322;2023-02-18T01:38:30;11.70;99.90
22781;DHT22;11557;50.884;4.322;2023-02-18T01:40:56;11.70;99.90
22781;DHT22;11557;50.884;4.322;2023-02-18T01:43:22;11.60;99.90
22781;DHT22;11557;50.884;4.322;2023-02-18T01:48:33;11.60;99.90
22781;DHT22;11557;50.884;4.322;2023-02-18T01:56:10;11.70;99.90
22781;DHT22;11557;50.884;4.322;2023-02-18T01:58:37;11.60;99.90
22781;DHT22;11557;50.884;4.322;2023-02-18T02:01:03;11.50;99.90
22781;DHT22;11557;50.884;4.322;2023-02-18T02:03:29;11.50;99.90
22781;DHT22;11557;50.884;4.322;2023-02-18T02:05:55;11.50;99.90
22781;DHT22;11557;50.884;4.322;2023-02-18T02:08:20;11.50;99.90
22781;DHT22;11557;50.884;4.322;2023-02-18T02:11:10;11.60;99.90
22781;DHT22;11557;50.884;4.322;2023-02-18T02:16:40;11.70;99.90
22781;DHT22;11557;50.884;4.322;2023-02-18T02:30:12;11.60;99.90
22781;DHT22;11557;50.884;4.322;2023-02-18T02:35:47;11.60;99.90
22781;DHT22;11557;50.884;4.322;2023-02-18T02:41:19;11.70;99.90
22781;DHT22;11557;50.884;4.322;2023-02-18T02:44:18;11.80;99.90
22781;DHT22;11557;50.884;4.322;2023-02-18T02:46:44;11.70;99.90
22781;DHT22;11557;50.884;4.322;2023-02-18T02:50:16;11.60;99.90
22781;DHT22;11557;50.884;4.322;2023-02-18T02:52:27;11.50;99.90
22781;DHT22;11557;50.884;4.322;2023-02-18T02:54:54;11.40;99.90
22781;DHT22;11557;50.884;4.322;2023-02-18T02:59:49;11.50;99.90
22781;DHT22;11557;50.884;4.322;2023-02-18T03:11:11;11.50;99.90
22781;DHT22;11557;50.884;4.322;2023-02-18T03:13:50;11.50;99.90
22781;DHT22;11557;50.884;4.322;2023-02-18T03:16:51;11.40;99.90
22781;DHT22;11557;50.884;4.322;2023-02-18T03:19:23;11.40;99.90
22781;DHT22;11557;50.884;4.322;2023-02-18T03:22:17;11.40;99.90
22781;DHT22;11557;50.884;4.322;2023-02-18T03:24:49;11.30;99.90
22781;DHT22;11557;50.884;4.322;2023-02-18T03:29:51;11.40;99.90
22781;DHT22;11557;50.884;4.322;2023-02-18T03:32:21;11.50;99.90
22781;DHT22;11557;50.884;4.322;2023-02-18T03:34:50;11.50;99.90
22781;DHT22;11557;50.884;4.322;2023-02-18T03:37:19;11.60;99.90
22781;DHT22;11557;50.884;4.322;2023-02-18T03:39:49;11.50;99.90
22781;DHT22;11557;50.884;4.322;2023-02-18T03:42:16;11.40;99.90
22781;DHT22;11557;50.884;4.322;2023-02-18T03:44:43;11.50;99.90
22781;DHT22;11557;50.884;4.322;2023-02-18T03:47:09;11.40;99.90
22781;DHT22;11557;50.884;4.322;2023-02-18T03:49:35;11.40;99.90
22781;DHT22;11557;50.884;4.322;2023-02-18T03:52:01;11.40;99.90
22781;DHT22;11557;50.884;4.322;2023-02-18T03:54:27;11.40;99.90
22781;DHT22;11557;50.884;4.322;2023-02-18T03:56:52;11.30;99.90
22781;DHT22;11557;50.884;4.322;2023-02-18T03:59:18;11.40;99.90
22781;DHT22;11557;50.884;4.322;2023-02-18T04:01:44;11.40;99.90
22781;DHT22;11557;50.884;4.322;2023-02-18T04:04:09;11.30;99.90
22781;DHT22;11557;50.884;4.322;2023-02-18T04:06:35;11.40;99.90
22781;DHT22;11557;50.884;4.322;2023-02-18T04:09:01;11.40;99.90
22781;DHT22;11557;50.884;4.322;2023-02-18T04:11:39;11.30;99.90
22781;DHT22;11557;50.884;4.322;2023-02-18T04:14:05;11.30;99.90
22781;DHT22;11557;50.884;4.322;2023-02-18T04:16:31;11.30;99.90
22781;DHT22;11557;50.884;4.322;2023-02-18T04:18:57;11.30;99.90
22781;DHT22;11557;50.884;4.322;2023-02-18T04:21:23;11.20;99.90
22781;DHT22;11557;50.884;4.322;2023-02-18T04:23:49;11.30;99.90
22781;DHT22;11557;50.884;4.322;2023-02-18T04:26:14;11.20;99.90
22781;DHT22;11557;50.884;4.322;2023-02-18T04:28:40;11.30;99.90
22781;DHT22;11557;50.884;4.322;2023-02-18T04:31:06;11.10;99.90
22781;DHT22;11557;50.884;4.322;2023-02-18T04:33:31;11.10;99.90
22781;DHT22;11557;50.884;4.322;2023-02-18T04:35:57;11.20;99.90
22781;DHT22;11557;50.884;4.322;2023-02-18T04:38:22;11.30;99.90
22781;DHT22;11557;50.884;4.322;2023-02-18T04:40:48;11.30;99.90
22781;DHT22;11557;50.884;4.322;2023-02-18T04:43:14;11.30;99.90
22781;DHT22;11557;50.884;4.322;2023-02-18T04:45:39;11.20;99.90
22781;DHT22;11557;50.884;4.322;2023-02-18T04:48:05;11.20;99.90
22781;DHT22;11557;50.884;4.322;2023-02-18T04:50:31;11.10;99.90
22781;DHT22;11557;50.884;4.322;2023-02-18T04:52:56;11.10;99.90
22781;DHT22;11557;50.884;4.322;2023-02-18T04:55:22;11.10;99.90
22781;DHT22;11557;50.884;4.322;2023-02-18T04:57:48;11.20;99.90
22781;DHT22;11557;50.884;4.322;2023-02-18T05:00:16;11.20;99.90
22781;DHT22;11557;50.884;4.322;2023-02-18T05:02:43;11.30;99.90
22781;DHT22;11557;50.884;4.322;2023-02-18T05:05:09;11.20;99.90
22781;DHT22;11557;50.884;4.322;2023-02-18T05:07:34;11.20;99.90
22781;DHT22;11557;50.884;4.322;2023-02-18T05:10:00;11.30;99.90
22781;DHT22;11557;50.884;4.322;2023-02-18T05:12:26;11.20;99.90
22781;DHT22;11557;50.884;4.322;2023-02-18T05:14:51;11.20;99.90
22781;DHT22;11557;50.884;4.322;2023-02-18T05:17:17;11.20;99.90
22781;DHT22;11557;50.884;4.322;2023-02-18T05:19:43;11.20;99.90
22781;DHT22;11557;50.884;4.322;2023-02-18T05:22:09;11.20;99.90
22781;DHT22;11557;50.884;4.322;2023-02-18T05:24:35;11.20;99.90
22781;DHT22;11557;50.884;4.322;2023-02-18T05:27:00;11.10;99.90
22781;DHT22;11557;50.884;4.322;2023-02-18T05:29:26;11.00;99.90
22781;DHT22;11557;50.884;4.322;2023-02-18T05:31:51;11.00;99.90
22781;DHT22;11557;50.884;4.322;2023-02-18T05:34:17;11.10;99.90
22781;DHT22;11557;50.884;4.322;2023-02-18T05:36:43;11.10;99.90
22781;DHT22;11557;50.884;4.322;2023-02-18T05:39:09;11.00;99.90
22781;DHT22;11557;50.884;4.322;2023-02-18T05:41:34;11.10;99.90
22781;DHT22;11557;50.884;4.322;2023-02-18T05:44:00;11.00;99.90
22781;DHT22;11557;50.884;4.322;2023-02-18T05:46:44;11.00;99.90
22781;DHT22;11557;50.884;4.322;2023-02-18T05:49:10;10.90;99.90
22781;DHT22;11557;50.884;4.322;2023-02-18T05:51:36;10.80;99.90
22781;DHT22;11557;50.884;4.322;2023-02-18T05:54:03;10.70;99.90
22781;DHT22;11557;50.884;4.322;2023-02-18T05:56:29;10.60;99.90
22781;DHT22;11557;50.884;4.322;2023-02-18T05:58:54;10.70;99.90
22781;DHT22;11557;50.884;4.322;2023-02-18T06:01:20;10.70;99.90
22781;DHT22;11557;50.884;4.322;2023-02-18T06:03:46;10.70;99.90
22781;DHT22;11557;50.884;4.322;2023-02-18T06:06:11;10.70;99.90
22781;DHT22;11557;50.884;4.322;2023-02-18T06:08:37;10.80;99.90
22781;DHT22;11557;50.884;4.322;2023-02-18T06:11:03;10.90;99.90
22781;DHT22;11557;50.884;4.322;2023-02-18T06:13:29;10.80;99.90
22781;DHT22;11557;50.884;4.322;2023-02-18T06:15:54;10.80;99.90
22781;DHT22;11557;50.884;4.322;2023-02-18T06:18:20;11.00;99.90
22781;DHT22;11557;50.884;4.322;2023-02-18T06:20:47;10.90;99.90
22781;DHT22;11557;50.884;4.322;2023-02-18T06:23:14;10.90;99.90
22781;DHT22;11557;50.884;4.322;2023-02-18T06:25:39;10.70;99.90
22781;DHT22;11557;50.884;4.322;2023-02-18T06:28:05;10.70;99.90
22781;DHT22;11557;50.884;4.322;2023-02-18T06:30:31;10.60;99.90
22781;DHT22;11557;50.884;4.322;2023-02-18T06:32:56;10.70;99.90
22781;DHT22;11557;50.884;4.322;2023-02-18T06:35:22;10.70;99.90
22781;DHT22;11557;50.884;4.322;2023-02-18T06:37:48;10.70;99.90
22781;DHT22;11557;50.884;4.322;2023-02-18T06:40:14;10.70;99.90
22781;DHT22;11557;50.884;4.322;2023-02-18T06:42:39;10.70;99.90
22781;DHT22;11557;50.884;4.322;2023-02-18T06:45:05;10.60;99.90
22781;DHT22;11557;50.884;4.322;2023-02-18T06:47:32;10.70;99.90
22781;DHT22;11557;50.884;4.322;2023-02-18T06:49:57;10.60;99.90
22781;DHT22;11557;50.884;4.322;2023-02-18T06:52:23;10.70;99.90
22781;DHT22;11557;50.884;4.322;2023-02-18T06:54:49;10.70;99.90
22781;DHT22;11557;50.884;4.322;2023-02-18T06:57:14;10.60;99.90
22781;DHT22;11557;50.884;4.322;2023-02-18T06:59:40;10.60;99.90
22781;DHT22;11557;50.884;4.322;2023-02-18T07:02:06;10.70;99.90
22781;DHT22;11557;50.884;4.322;2023-02-18T07:04:31;10.70;99.90
22781;DHT22;11557;50.884;4.322;2023-02-18T07:06:57;10.80;99.90
22781;DHT22;11557;50.884;4.322;2023-02-18T07:09:23;10.80;99.90
22781;DHT22;11557;50.884;4.322;2023-02-18T07:11:48;10.80;99.90
22781;DHT22;11557;50.884;4.322;2023-02-18T07:14:14;10.80;99.90
22781;DHT22;11557;50.884;4.322;2023-02-18T07:16:40;10.70;99.90
22781;DHT22;11557;50.884;4.322;2023-02-18T07:19:06;10.70;99.90
22781;DHT22;11557;50.884;4.322;2023-02-18T07:21:32;10.80;99.90
22781;DHT22;11557;50.884;4.322;2023-02-18T07:23:57;10.10;99.90
22781;DHT22;11557;50.884;4.322;2023-02-18T07:26:23;10.90;99.90
22781;DHT22;11557;50.884;4.322;2023-02-18T07:28:49;10.90;99.90
22781;DHT22;11557;50.884;4.322;2023-02-18T07:31:14;10.80;99.90
22781;DHT22;11557;50.884;4.322;2023-02-18T07:33:40;10.90;99.90
22781;DHT22;11557;50.884;4.322;2023-02-18T07:36:06;11.00;99.90
22781;DHT22;11557;50.884;4.322;2023-02-18T07:38:32;11.00;99.90
22781;DHT22;11557;50.884;4.322;2023-02-18T07:40:58;11.10;99.90
22781;DHT22;11557;50.884;4.322;2023-02-18T07:43:24;11.10;99.90
22781;DHT22;11557;50.884;4.322;2023-02-18T07:45:50;11.20;99.90
22781;DHT22;11557;50.884;4.322;2023-02-18T07:48:15;11.10;99.90
22781;DHT22;11557;50.884;4.322;2023-02-18T07:50:43;11.00;99.90
22781;DHT22;11557;50.884;4.322;2023-02-18T07:53:10;10.90;99.90
22781;DHT22;11557;50.884;4.322;2023-02-18T07:55:36;10.90;99.90
22781;DHT22;11557;50.884;4.322;2023-02-18T07:58:18;10.90;99.90
22781;DHT22;11557;50.884;4.322;2023-02-18T08:00:45;11.10;99.90
22781;DHT22;11557;50.884;4.322;2023-02-18T08:03:13;11.20;99.90
22781;DHT22;11557;50.884;4.322;2023-02-18T08:05:39;11.20;99.90
22781;DHT22;11557;50.884;4.322;2023-02-18T08:08:04;11.10;99.90
22781;DHT22;11557;50.884;4.322;2023-02-18T08:10:30;11.20;99.90
22781;DHT22;11557;50.884;4.322;2023-02-18T08:12:56;11.20;99.90
22781;DHT22;11557;50.884;4.322;2023-02-18T08:15:22;11.30;99.90
22781;DHT22;11557;50.884;4.322;2023-02-18T08:17:48;11.20;99.90
22781;DHT22;11557;50.884;4.322;2023-02-18T08:20:13;11.20;99.90
22781;DHT22;11557;50.884;4.322;2023-02-18T08:22:40;11.20;99.90
22781;DHT22;11557;50.884;4.322;2023-02-18T08:25:06;11.20;99.90
22781;DHT22;11557;50.884;4.322;2023-02-18T08:27:32;11.00;99.90
22781;DHT22;11557;50.884;4.322;2023-02-18T08:29:57;11.10;99.90
22781;DHT22;11557;50.884;4.322;2023-02-18T08:32:26;11.10;99.90
22781;DHT22;11557;50.884;4.322;2023-02-18T08:34:53;11.10;99.90
22781;DHT22;11557;50.884;4.322;2023-02-18T08:37:18;11.10;99.90
22781;DHT22;11557;50.884;4.322;2023-02-18T08:39:44;11.20;99.90
22781;DHT22;11557;50.884;4.322;2023-02-18T08:42:10;11.20;99.90
22781;DHT22;11557;50.884;4.322;2023-02-18T08:44:36;11.20;99.90
22781;DHT22;11557;50.884;4.322;2023-02-18T08:47:02;11.20;99.90
22781;DHT22;11557;50.884;4.322;2023-02-18T08:49:28;11.30;99.90
22781;DHT22;11557;50.884;4.322;2023-02-18T08:51:53;11.30;99.90
22781;DHT22;11557;50.884;4.322;2023-02-18T08:54:19;11.10;99.90
22781;DHT22;11557;50.884;4.322;2023-02-18T08:56:45;11.30;99.90
22781;DHT22;11557;50.884;4.322;2023-02-18T08:59:11;11.30;99.90
22781;DHT22;11557;50.884;4.322;2023-02-18T09:01:40;11.40;99.90
22781;DHT22;11557;50.884;4.322;2023-02-18T09:04:06;11.50;99.90
22781;DHT22;11557;50.884;4.322;2023-02-18T09:06:35;11.40;99.90
22781;DHT22;11557;50.884;4.322;2023-02-18T09:09:01;11.50;99.90
22781;DHT22;11557;50.884;4.322;2023-02-18T09:11:26;11.50;99.90
22781;DHT22;11557;50.884;4.322;2023-02-18T09:13:52;11.50;99.90
22781;DHT22;11557;50.884;4.322;2023-02-18T09:16:18;11.60;99.90
22781;DHT22;11557;50.884;4.322;2023-02-18T09:18:44;11.60;99.90
22781;DHT22;11557;50.884;4.322;2023-02-18T09:21:12;11.40;99.90
22781;DHT22;11557;50.884;4.322;2023-02-18T09:23:39;11.40;99.90
22781;DHT22;11557;50.884;4.322;2023-02-18T09:26:06;11.60;99.90
22781;DHT22;11557;50.884;4.322;2023-02-18T09:28:32;11.60;99.90
22781;DHT22;11557;50.884;4.322;2023-02-18T09:31:04;11.70;99.90
22781;DHT22;11557;50.884;4.322;2023-02-18T09:33:29;11.70;99.90
22781;DHT22;11557;50.884;4.322;2023-02-18T09:35:55;11.60;99.90
22781;DHT22;11557;50.884;4.322;2023-02-18T09:38:21;11.70;99.90
22781;DHT22;11557;50.884;4.322;2023-02-18T09:40:50;11.80;99.90
22781;DHT22;11557;50.884;4.322;2023-02-18T09:45:50;11.80;99.90
22781;DHT22;11557;50.884;4.322;2023-02-18T09:48:16;11.80;99.90
22781;DHT22;11557;50.884;4.322;2023-02-18T09:50:42;11.70;99.90
22781;DHT22;11557;50.884;4.322;2023-02-18T09:53:11;11.60;99.90
22781;DHT22;11557;50.884;4.322;2023-02-18T09:55:40;11.70;99.90
22781;DHT22;11557;50.884;4.322;2023-02-18T10:00:42;11.70;99.90
22781;DHT22;11557;50.884;4.322;2023-02-18T10:03:23;11.80;99.90
22781;DHT22;11557;50.884;4.322;2023-02-18T10:06:23;11.70;99.90
22781;DHT22;11557;50.884;4.322;2023-02-18T10:08:50;11.80;99.90
22781;DHT22;11557;50.884;4.322;2023-02-18T10:13:47;11.80;99.90
22781;DHT22;11557;50.884;4.322;2023-02-18T10:16:17;11.80;99.90
22781;DHT22;11557;50.884;4.322;2023-02-18T10:18:45;11.70;99.90
22781;DHT22;11557;50.884;4.322;2023-02-18T10:21:19;11.70;99.90
22781;DHT22;11557;50.884;4.322;2023-02-18T10:26:26;11.80;99.90
22781;DHT22;11557;50.884;4.322;2023-02-18T10:28:53;11.90;99.90
22781;DHT22;11557;50.884;4.322;2023-02-18T10:31:31;12.00;99.90
22781;DHT22;11557;50.884;4.322;2023-02-18T10:36:50;11.90;99.90
22781;DHT22;11557;50.884;4.322;2023-02-18T10:39:34;11.90;99.90
22781;DHT22;11557;50.884;4.322;2023-02-18T10:50:41;12.20;99.90
22781;DHT22;11557;50.884;4.322;2023-02-18T10:55:58;12.30;99.90
22781;DHT22;11557;50.884;4.322;2023-02-18T11:01:00;12.20;99.90
22781;DHT22;11557;50.884;4.322;2023-02-18T11:03:43;12.20;99.90
22781;DHT22;11557;50.884;4.322;2023-02-18T11:12:04;12.10;99.90
22781;DHT22;11557;50.884;4.322;2023-02-18T11:14:42;12.20;99.90
22781;DHT22;11557;50.884;4.322;2023-02-18T11:17:27;12.10;99.90
22781;DHT22;11557;50.884;4.322;2023-02-18T11:19:58;12.10;99.90
22781;DHT22;11557;50.884;4.322;2023-02-18T11:22:28;12.20;99.90
22781;DHT22;11557;50.884;4.322;2023-02-18T11:24:56;12.20;99.90
22781;DHT22;11557;50.884;4.322;2023-02-18T11:27:30;12.20;99.90
22781;DHT22;11557;50.884;4.322;2023-02-18T11:30:04;12.20;99.90
22781;DHT22;11557;50.884;4.322;2023-02-18T11:32:34;12.30;99.90
22781;DHT22;11557;50.884;4.322;2023-02-18T11:35:02;12.40;99.90
22781;DHT22;11557;50.884;4.322;2023-02-18T11:37:39;12.50;99.90
22781;DHT22;11557;50.884;4.322;2023-02-18T11:40:05;12.40;99.90
22781;DHT22;11557;50.884;4.322;2023-02-18T11:42:32;12.50;99.90
22781;DHT22;11557;50.884;4.322;2023-02-18T11:44:59;12.30;99.90
22781;DHT22;11557;50.884;4.322;2023-02-18T11:47:30;12.30;99.90
22781;DHT22;11557;50.884;4.322;2023-02-18T11:52:38;12.50;99.90
22781;DHT22;11557;50.884;4.322;2023-02-18T11:55:28;12.60;99.90
22781;DHT22;11557;50.884;4.322;2023-02-18T11:58:00;12.60;99.90
22781;DHT22;11557;50.884;4.322;2023-02-18T12:00:43;12.50;99.90
22781;DHT22;11557;50.884;4.322;2023-02-18T12:03:40;12.40;99.90
22781;DHT22;11557;50.884;4.322;2023-02-18T12:06:08;12.40;99.90
22781;DHT22;11557;50.884;4.322;2023-02-18T12:09:12;12.40;99.90
22781;DHT22;11557;50.884;4.322;2023-02-18T12:11:37;12.40;99.90
22781;DHT22;11557;50.884;4.322;2023-02-18T12:14:10;12.40;99.90
22781;DHT22;11557;50.884;4.322;2023-02-18T12:22:39;12.50;99.90
22781;DHT22;11557;50.884;4.322;2023-02-18T12:25:28;12.60;99.90
22781;DHT22;11557;50.884;4.322;2023-02-18T12:36:06;12.50;99.90
22781;DHT22;11557;50.884;4.322;2023-02-18T12:49:36;12.70;99.90
22781;DHT22;11557;50.884;4.322;2023-02-18T12:54:37;12.50;99.90
22781;DHT22;11557;50.884;4.322;2023-02-18T12:57:28;12.60;99.90
22781;DHT22;11557;50.884;4.322;2023-02-18T13:00:15;12.50;99.90
22781;DHT22;11557;50.884;4.322;2023-02-18T13:05:42;12.40;99.90
22781;DHT22;11557;50.884;4.322;2023-02-18T13:08:21;12.30;99.90
22781;DHT22;11557;50.884;4.322;2023-02-18T13:13:32;12.00;99.90
22781;DHT22;11557;50.884;4.322;2023-02-18T13:16:07;12.00;99.90
22781;DHT22;11557;50.884;4.322;2023-02-18T13:18:38;12.00;99.90
22781;DHT22;11557;50.884;4.322;2023-02-18T13:21:07;12.00;99.90
22781;DHT22;11557;50.884;4.322;2023-02-18T13:23:38;12.00;99.90
22781;DHT22;11557;50.884;4.322;2023-02-18T13:26:06;12.00;99.90
22781;DHT22;11557;50.884;4.322;2023-02-18T13:31:34;12.00;99.90
22781;DHT22;11557;50.884;4.322;2023-02-18T13:34:45;12.00;99.90
22781;DHT22;11557;50.884;4.322;2023-02-18T13:40:01;12.10;99.90
22781;DHT22;11557;50.884;4.322;2023-02-18T13:47:41;11.90;99.90
22781;DHT22;11557;50.884;4.322;2023-02-18T13:51:01;11.90;99.90
22781;DHT22;11557;50.884;4.322;2023-02-18T13:55:52;11.90;99.90
22781;DHT22;11557;50.884;4.322;2023-02-18T13:58:23;11.90;99.90
22781;DHT22;11557;50.884;4.322;2023-02-18T14:01:19;11.80;99.90
22781;DHT22;11557;50.884;4.322;2023-02-18T14:08:48;11.60;99.90
22781;DHT22;11557;50.884;4.322;2023-02-18T14:13:54;11.60;99.90
22781;DHT22;11557;50.884;4.322;2023-02-18T14:19:41;11.70;99.90
22781;DHT22;11557;50.884;4.322;2023-02-18T14:25:01;11.70;99.90
22781;DHT22;11557;50.884;4.322;2023-02-18T14:27:27;11.50;99.90
22781;DHT22;11557;50.884;4.322;2023-02-18T14:29:53;11.40;99.90
22781;DHT22;11557;50.884;4.322;2023-02-18T14:32:19;11.40;99.90
22781;DHT22;11557;50.884;4.322;2023-02-18T14:41:30;11.50;99.90
22781;DHT22;11557;50.884;4.322;2023-02-18T14:47:09;11.50;99.90
22781;DHT22;11557;50.884;4.322;2023-02-18T14:49:42;11.60;99.90
22781;DHT22;11557;50.884;4.322;2023-02-18T14:54:52;11.70;99.90
22781;DHT22;11557;50.884;4.322;2023-02-18T14:57:23;11.60;99.90
22781;DHT22;11557;50.884;4.322;2023-02-18T14:59:57;11.70;99.90
22781;DHT22;11557;50.884;4.322;2023-02-18T15:02:26;11.80;99.90
22781;DHT22;11557;50.884;4.322;2023-02-18T15:04:52;11.60;99.90
22781;DHT22;11557;50.884;4.322;2023-02-18T15:07:20;11.50;99.90
22781;DHT22;11557;50.884;4.322;2023-02-18T15:09:51;11.60;99.90
22781;DHT22;11557;50.884;4.322;2023-02-18T15:12:22;11.60;99.90
22781;DHT22;11557;50.884;4.322;2023-02-18T15:14:51;11.60;99.90
22781;DHT22;11557;50.884;4.322;2023-02-18T15:17:21;11.70;99.90
22781;DHT22;11557;50.884;4.322;2023-02-18T15:19:53;11.60;99.90
22781;DHT22;11557;50.884;4.322;2023-02-18T15:22:28;11.60;99.90
22781;DHT22;11557;50.884;4.322;2023-02-18T15:24:56;11.60;99.90
22781;DHT22;11557;50.884;4.322;2023-02-18T15:27:28;11.80;99.90
22781;DHT22;11557;50.884;4.322;2023-02-18T15:30:33;11.80;99.90
22781;DHT22;11557;50.884;4.322;2023-02-18T15:33:01;11.80;99.90
22781;DHT22;11557;50.884;4.322;2023-02-18T15:35:30;11.70;99.90
22781;DHT22;11557;50.884;4.322;2023-02-18T15:37:58;11.70;99.90
22781;DHT22;11557;50.884;4.322;2023-02-18T15:40:31;11.70;99.90
22781;DHT22;11557;50.884;4.322;2023-02-18T15:43:00;11.80;99.90
22781;DHT22;11557;50.884;4.322;2023-02-18T15:45:38;11.80;99.90
22781;DHT22;11557;50.884;4.322;2023-02-18T15:48:06;12.00;99.90
22781;DHT22;11557;50.884;4.322;2023-02-18T15:50:44;12.00;99.90
22781;DHT22;11557;50.884;4.322;2023-02-18T15:53:15;11.60;99.90
22781;DHT22;11557;50.884;4.322;2023-02-18T15:55:45;12.00;99.90
22781;DHT22;11557;50.884;4.322;2023-02-18T15:58:12;12.00;99.90
22781;DHT22;11557;50.884;4.322;2023-02-18T16:00:41;12.00;99.90
22781;DHT22;11557;50.884;4.322;2023-02-18T16:03:15;12.10;99.90
22781;DHT22;11557;50.884;4.322;2023-02-18T16:05:44;12.10;99.90
22781;DHT22;11557;50.884;4.322;2023-02-18T16:08:26;12.10;99.90
22781;DHT22;11557;50.884;4.322;2023-02-18T16:11:07;12.20;99.90
22781;DHT22;11557;50.884;4.322;2023-02-18T16:13:35;12.20;99.90
22781;DHT22;11557;50.884;4.322;2023-02-18T16:16:02;12.10;99.90
22781;DHT22;11557;50.884;4.322;2023-02-18T16:18:37;12.00;99.90
22781;DHT22;11557;50.884;4.322;2023-02-18T16:23:57;12.20;99.90
22781;DHT22;11557;50.884;4.322;2023-02-18T16:28:58;12.20;99.90
22781;DHT22;11557;50.884;4.322;2023-02-18T16:31:25;12.10;99.90
22781;DHT22;11557;50.884;4.322;2023-02-18T16:33:51;12.20;99.90
22781;DHT22;11557;50.884;4.322;2023-02-18T16:36:17;12.20;99.90
22781;DHT22;11557;50.884;4.322;2023-02-18T16:38:44;12.20;99.90
22781;DHT22;11557;50.884;4.322;2023-02-18T16:41:13;11.80;99.90
22781;DHT22;11557;50.884;4.322;2023-02-18T16:43:41;12.10;99.90
22781;DHT22;11557;50.884;4.322;2023-02-18T16:46:14;12.10;99.90
22781;DHT22;11557;50.884;4.322;2023-02-18T16:48:42;12.10;99.90
22781;DHT22;11557;50.884;4.322;2023-02-18T16:51:16;12.20;99.90
22781;DHT22;11557;50.884;4.322;2023-02-18T16:53:44;12.00;99.90
22781;DHT22;11557;50.884;4.322;2023-02-18T16:56:19;12.00;99.90
22781;DHT22;11557;50.884;4.322;2023-02-18T16:58:45;12.00;99.90
22781;DHT22;11557;50.884;4.322;2023-02-18T17:03:56;12.10;99.90
22781;DHT22;11557;50.884;4.322;2023-02-18T17:06:22;12.00;99.90
22781;DHT22;11557;50.884;4.322;2023-02-18T17:08:48;12.00;99.90
22781;DHT22;11557;50.884;4.322;2023-02-18T17:11:24;11.90;99.90
22781;DHT22;11557;50.884;4.322;2023-02-18T17:13:52;12.00;99.90
22781;DHT22;11557;50.884;4.322;2023-02-18T17:16:20;12.00;99.90
22781;DHT22;11557;50.884;4.322;2023-02-18T17:18:46;11.90;99.90
22781;DHT22;11557;50.884;4.322;2023-02-18T17:21:17;12.00;99.90
22781;DHT22;11557;50.884;4.322;2023-02-18T17:23:43;11.90;99.90
22781;DHT22;11557;50.884;4.322;2023-02-18T17:28:42;11.90;99.90
22781;DHT22;11557;50.884;4.322;2023-02-18T17:31:13;11.90;99.90
22781;DHT22;11557;50.884;4.322;2023-02-18T17:33:41;12.00;99.90
22781;DHT22;11557;50.884;4.322;2023-02-18T17:36:08;12.10;99.90
22781;DHT22;11557;50.884;4.322;2023-02-18T17:38:35;12.10;99.90
22781;DHT22;11557;50.884;4.322;2023-02-18T17:41:00;12.10;99.90
22781;DHT22;11557;50.884;4.322;2023-02-18T17:43:26;12.00;99.90
22781;DHT22;11557;50.884;4.322;2023-02-18T17:45:54;12.00;99.90
22781;DHT22;11557;50.884;4.322;2023-02-18T17:48:22;12.00;99.90
22781;DHT22;11557;50.884;4.322;2023-02-18T17:50:49;12.00;99.90
22781;DHT22;11557;50.884;4.322;2023-02-18T17:53:16;12.10;99.90
22781;DHT22;11557;50.884;4.322;2023-02-18T17:55:43;12.00;99.90
22781;DHT22;11557;50.884;4.322;2023-02-18T17:58:10;12.00;99.90
22781;DHT22;11557;50.884;4.322;2023-02-18T18:00:39;12.00;99.90
22781;DHT22;11557;50.884;4.322;2023-02-18T18:03:05;11.90;99.90
22781;DHT22;11557;50.884;4.322;2023-02-18T18:05:32;11.80;99.90
22781;DHT22;11557;50.884;4.322;2023-02-18T18:08:00;11.80;99.90
22781;DHT22;11557;50.884;4.322;2023-02-18T18:10:28;11.70;99.90
22781;DHT22;11557;50.884;4.322;2023-02-18T18:13:01;11.70;99.90
22781;DHT22;11557;50.884;4.322;2023-02-18T18:15:34;11.80;99.90
22781;DHT22;11557;50.884;4.322;2023-02-18T18:18:00;11.80;99.90
22781;DHT22;11557;50.884;4.322;2023-02-18T18:20:28;11.70;99.90
22781;DHT22;11557;50.884;4.322;2023-02-18T18:22:56;11.80;99.90